Time;durP1;ratioP1;P1;durP2;ratioP2;P2;SDS_P1;SDS_P2;PMS_P1;PMS_P2;Temp;Humidity;BMP_temperature;BMP_pressure;BME280_temperature;BME280_humidity;BME280_pressure;Samples;Min_cycle;Max_cycle;Signal;HPM_P1;HPM_P2
2023/05/13 00:02:17;;;;;;;6.83;4.23;;;12.40;38.80;;;;;;5046890;28;20481;-67
2023/05/13 00:04:44;;;;;;;7.77;5.63;;;12.40;38.80;;;;;;5046863;28;20457;-67
2023/05/13 00:07:11;;;;;;;8.40;4.93;;;12.40;38.90;;;;;;5046407;28;20513;-68
2023/05/13 00:09:39;;;;;;;8.47;5.43;;;12.40;38.80;;;;;;5046380;28;20478;-66
2023/05/13 00:12:06;;;;;;;7.70;4.97;;;12.40;39.00;;;;;;5046397;28;20962;-67
2023/05/13 00:14:33;;;;;;;7.73;5.17;;;12.40;38.90;;;;;;5047001;28;20466;-67
2023/05/13 00:17:03;;;;;;;6.80;4.30;;;12.40;38.90;;;;;;5045542;28;20478;-67
2023/05/13 00:19:29;;;;;;;7.50;4.80;;;12.40;39.00;;;;;;5047211;28;21195;-66
2023/05/13 00:21:56;;;;;;;8.87;5.63;;;12.40;38.90;;;;;;5041033;28;20462;-66
2023/05/13 00:24:23;;;;;;;7.10;4.90;;;12.40;39.10;;;;;;5048547;28;20461;-67
2023/05/13 00:26:51;;;;;;;10.03;5.60;;;12.40;39.10;;;;;;5049998;28;20489;-67
2023/05/13 00:29:17;;;;;;;8.13;5.37;;;12.40;39.10;;;;;;5049067;28;20507;-67
2023/05/13 00:31:44;;;;;;;7.70;4.93;;;12.40;39.00;;;;;;5046879;28;21210;-67
2023/05/13 00:34:11;;;;;;;7.93;5.00;;;12.40;39.20;;;;;;5050061;28;20462;-67
2023/05/13 00:36:38;;;;;;;7.83;4.90;;;12.40;39.10;;;;;;5049841;28;20492;-67
2023/05/13 00:39:04;;;;;;;7.20;5.00;;;12.40;39.10;;;;;;5049888;28;20461;-68
2023/05/13 00:41:31;;;;;;;9.00;5.03;;;12.40;39.10;;;;;;5047647;28;20462;-68
2023/05/13 00:43:59;;;;;;;7.50;5.30;;;12.30;39.20;;;;;;5048081;28;20458;-67
2023/05/13 00:46:31;;;;;;;7.57;4.47;;;12.30;39.10;;;;;;5043775;28;20866;-67
2023/05/13 00:48:58;;;;;;;6.57;4.30;;;12.30;39.10;;;;;;5048279;28;20478;-67
2023/05/13 00:51:25;;;;;;;6.50;4.10;;;12.30;39.20;;;;;;5050128;28;20863;-67
2023/05/13 00:53:51;;;;;;;6.50;3.37;;;12.20;38.90;;;;;;5050019;28;20466;-67
2023/05/13 00:56:19;;;;;;;5.73;3.57;;;12.20;38.70;;;;;;5049717;28;20489;-67
2023/05/13 00:58:46;;;;;;;7.40;3.43;;;12.20;38.90;;;;;;5047478;28;20560;-68
2023/05/13 01:01:21;;;;;;;7.90;3.90;;;12.20;38.00;;;;;;5050433;28;20477;-67
2023/05/13 01:03:56;;;;;;;6.60;3.70;;;12.20;38.00;;;;;;5049810;28;20474;-68
2023/05/13 01:06:31;;;;;;;6.70;3.70;;;12.10;38.20;;;;;;5050364;28;20594;-68
2023/05/13 01:09:03;;;;;;;5.80;3.17;;;12.10;38.30;;;;;;5046210;28;20465;-67
2023/05/13 01:11:35;;;;;;;7.27;3.13;;;12.10;38.20;;;;;;5049727;28;20469;-67
2023/05/13 01:14:08;;;;;;;6.10;3.17;;;12.10;38.10;;;;;;5048065;28;20466;-68
2023/05/13 01:16:43;;;;;;;9.20;3.00;;;12.10;37.80;;;;;;5046469;28;20500;-67
2023/05/13 01:19:25;;;;;;;6.73;3.27;;;12.10;37.80;;;;;;5050707;28;20469;-66
2023/05/13 01:21:53;;;;;;;5.77;3.17;;;12.10;37.70;;;;;;5048678;28;20462;-67
2023/05/13 01:24:20;;;;;;;5.57;2.93;;;12.10;37.60;;;;;;5049385;28;20470;-67
2023/05/13 01:26:48;;;;;;;7.07;2.73;;;12.10;37.50;;;;;;5047719;28;21033;-68
2023/05/13 01:29:15;;;;;;;6.13;3.23;;;12.10;37.40;;;;;;5047964;28;20512;-67
2023/05/13 01:31:42;;;;;;;5.27;2.60;;;12.00;37.50;;;;;;5047270;28;20479;-67
2023/05/13 01:34:10;;;;;;;8.03;3.70;;;12.00;37.70;;;;;;5048201;28;20490;-67
2023/05/13 01:36:37;;;;;;;5.63;2.83;;;12.00;37.70;;;;;;5047123;28;20559;-67
2023/05/13 01:39:05;;;;;;;6.30;2.93;;;11.90;37.60;;;;;;5048590;28;20470;-67
2023/05/13 01:41:32;;;;;;;6.47;2.90;;;11.90;37.90;;;;;;5048578;28;20885;-66
2023/05/13 01:43:59;;;;;;;5.47;2.67;;;11.90;38.00;;;;;;5049721;28;20462;-67
2023/05/13 01:46:26;;;;;;;6.57;2.90;;;11.80;38.10;;;;;;5047984;28;20481;-66
2023/05/13 01:48:53;;;;;;;6.57;3.00;;;11.80;38.30;;;;;;5048238;28;20478;-68
2023/05/13 01:51:20;;;;;;;5.47;3.00;;;11.80;38.40;;;;;;5049856;28;20569;-67
2023/05/13 01:53:47;;;;;;;6.67;3.50;;;11.80;38.50;;;;;;5046129;28;20470;-67
2023/05/13 01:56:15;;;;;;;6.10;3.37;;;11.90;38.60;;;;;;5049460;28;20478;-67
2023/05/13 01:58:41;;;;;;;5.83;3.57;;;11.90;38.60;;;;;;5048614;28;20466;-67
2023/05/13 02:01:08;;;;;;;6.80;3.50;;;11.90;38.60;;;;;;5043406;28;20485;-67
2023/05/13 02:03:35;;;;;;;6.00;3.50;;;11.90;38.60;;;;;;5047608;28;20555;-66
2023/05/13 02:06:02;;;;;;;6.40;3.80;;;11.90;38.60;;;;;;5044284;28;20497;-67
2023/05/13 02:08:29;;;;;;;6.90;3.90;;;11.90;38.70;;;;;;5048518;28;20496;-67
2023/05/13 02:10:56;;;;;;;5.73;3.43;;;11.90;38.70;;;;;;5046440;28;20901;-67
2023/05/13 02:13:25;;;;;;;6.87;3.73;;;11.90;38.70;;;;;;5047125;28;20458;-67
2023/05/13 02:15:52;;;;;;;6.47;4.00;;;11.90;38.80;;;;;;5048908;28;20482;-67
2023/05/13 02:18:18;;;;;;;5.97;3.40;;;11.90;38.70;;;;;;5047476;28;20470;-66
2023/05/13 02:20:45;;;;;;;6.50;3.80;;;11.90;38.70;;;;;;5042582;28;20509;-66
2023/05/13 02:23:13;;;;;;;6.27;3.30;;;11.90;38.60;;;;;;5049591;28;20458;-67
2023/05/13 02:25:40;;;;;;;6.73;4.03;;;11.90;38.60;;;;;;5046308;28;20474;-66
2023/05/13 02:28:07;;;;;;;6.50;3.77;;;11.90;38.70;;;;;;5048416;28;20469;-66
2023/05/13 02:30:35;;;;;;;7.13;3.80;;;11.90;38.70;;;;;;5045898;28;20549;-66
2023/05/13 02:33:02;;;;;;;9.13;3.30;;;11.90;38.80;;;;;;5044843;28;20470;-66
2023/05/13 02:35:29;;;;;;;9.43;3.73;;;11.90;38.60;;;;;;5048014;28;20492;-66
2023/05/13 02:37:56;;;;;;;6.53;3.30;;;11.90;38.60;;;;;;5047721;28;21190;-67
2023/05/13 02:40:23;;;;;;;6.60;3.60;;;11.80;38.60;;;;;;5047330;28;20485;-67
2023/05/13 02:42:50;;;;;;;5.57;3.03;;;11.90;38.50;;;;;;5047072;28;20450;-66
2023/05/13 02:45:17;;;;;;;6.90;4.20;;;11.90;38.40;;;;;;5043332;28;20509;-66
2023/05/13 02:47:45;;;;;;;7.00;4.67;;;11.80;38.40;;;;;;5047954;28;20464;-67
2023/05/13 02:50:12;;;;;;;7.20;3.20;;;11.80;38.40;;;;;;5062671;28;20470;-66
2023/05/13 02:52:39;;;;;;;6.40;4.07;;;11.80;38.50;;;;;;5072399;28;20482;-66
2023/05/13 02:55:07;;;;;;;6.40;3.63;;;11.80;38.40;;;;;;5053729;28;20545;-67
2023/05/13 02:57:34;;;;;;;6.57;3.93;;;11.80;38.50;;;;;;5046687;28;20832;-67
2023/05/13 03:00:01;;;;;;;7.50;3.60;;;11.80;38.50;;;;;;5042472;28;20462;-67
2023/05/13 03:02:28;;;;;;;8.23;3.90;;;11.80;38.50;;;;;;5048145;28;20950;-67
2023/05/13 03:04:56;;;;;;;9.10;3.40;;;11.80;38.50;;;;;;5046096;28;20470;-66
2023/05/13 03:07:24;;;;;;;7.90;4.23;;;11.80;38.50;;;;;;5048750;28;20477;-66
2023/05/13 03:09:51;;;;;;;6.40;2.73;;;11.80;38.40;;;;;;5045241;28;21033;-67
2023/05/13 03:12:18;;;;;;;5.07;2.87;;;11.80;38.30;;;;;;5047934;28;20457;-67
2023/05/13 03:14:44;;;;;;;7.90;3.47;;;11.80;38.30;;;;;;5045995;28;20458;-67
2023/05/13 03:17:11;;;;;;;5.60;3.23;;;11.80;38.20;;;;;;5045093;28;21079;-67
2023/05/13 03:19:39;;;;;;;6.87;3.50;;;11.80;38.10;;;;;;5046109;28;20461;-67
2023/05/13 03:22:07;;;;;;;7.10;3.53;;;11.80;38.10;;;;;;5048330;28;20466;-67
2023/05/13 03:24:34;;;;;;;7.50;3.50;;;11.80;38.10;;;;;;5047980;28;20469;-66
2023/05/13 03:27:00;;;;;;;6.63;3.50;;;11.80;38.60;;;;;;5043145;28;20474;-67
2023/05/13 03:29:27;;;;;;;9.13;4.07;;;11.80;38.00;;;;;;5047014;28;20476;-67
2023/05/13 03:31:54;;;;;;;9.10;4.07;;;11.80;38.00;;;;;;5042846;28;20466;-66
2023/05/13 03:34:21;;;;;;;6.50;3.23;;;11.80;37.90;;;;;;5047715;28;20465;-67
2023/05/13 03:36:47;;;;;;;6.03;3.33;;;11.80;37.80;;;;;;5047874;28;20481;-67
2023/05/13 03:39:16;;;;;;;9.43;4.20;;;11.80;37.80;;;;;;5045594;28;20454;-67
2023/05/13 03:41:43;;;;;;;6.73;3.50;;;11.70;37.70;;;;;;5048300;28;20489;-67
2023/05/13 03:44:09;;;;;;;6.10;3.53;;;11.70;37.60;;;;;;5045852;28;20493;-66
2023/05/13 03:46:36;;;;;;;7.67;3.87;;;11.70;37.70;;;;;;5044483;28;20488;-66
2023/05/13 03:49:03;;;;;;;7.53;3.97;;;11.70;37.70;;;;;;5046183;28;20876;-67
2023/05/13 03:51:30;;;;;;;6.00;3.40;;;11.70;37.70;;;;;;5046350;28;20464;-67
2023/05/13 03:53:57;;;;;;;6.20;3.33;;;11.70;37.60;;;;;;5041973;28;20458;-67
2023/05/13 03:56:25;;;;;;;5.73;3.40;;;11.70;37.50;;;;;;5045945;28;20481;-66
2023/05/13 03:58:51;;;;;;;7.43;3.20;;;11.70;37.60;;;;;;5047244;28;20481;-67
2023/05/13 04:01:18;;;;;;;6.40;3.60;;;11.70;37.70;;;;;;5051434;28;20477;-66
2023/05/13 04:03:45;;;;;;;7.83;4.10;;;11.70;37.70;;;;;;5047504;28;20466;-66
2023/05/13 04:06:13;;;;;;;6.73;3.40;;;11.70;37.60;;;;;;5048276;28;20489;-66
2023/05/13 04:08:40;;;;;;;5.37;3.10;;;11.70;37.50;;;;;;5046407;28;20474;-67
2023/05/13 04:11:07;;;;;;;6.30;3.40;;;11.70;37.50;;;;;;5048850;28;20993;-67
2023/05/13 04:13:36;;;;;;;6.17;3.27;;;11.70;37.50;;;;;;5051612;28;20474;-66
2023/05/13 04:16:03;;;;;;;9.00;4.40;;;11.70;37.30;;;;;;5050196;28;20478;-66
2023/05/13 04:18:30;;;;;;;7.43;3.93;;;11.70;37.20;;;;;;5050701;28;20489;-66
2023/05/13 04:20:56;;;;;;;7.60;4.30;;;11.80;37.10;;;;;;5049884;28;20507;-66
2023/05/13 04:23:23;;;;;;;7.67;3.70;;;11.70;37.00;;;;;;5050725;28;20461;-67
2023/05/13 04:25:51;;;;;;;9.47;3.77;;;11.70;37.10;;;;;;5050688;28;20470;-67
2023/05/13 04:28:17;;;;;;;8.80;4.77;;;11.70;37.10;;;;;;5047484;28;20559;-67
2023/05/13 04:30:45;;;;;;;8.23;4.00;;;11.70;37.20;;;;;;5050358;28;20469;-66
2023/05/13 04:33:12;;;;;;;11.33;4.40;;;11.60;37.20;;;;;;5049256;28;20454;-66
2023/05/13 04:35:39;;;;;;;9.07;5.07;;;11.70;37.40;;;;;;5050868;28;20591;-67
2023/05/13 04:38:06;;;;;;;7.90;5.03;;;11.70;37.20;;;;;;5048670;28;20453;-66
2023/05/13 04:40:32;;;;;;;9.93;4.70;;;11.70;37.40;;;;;;5051155;28;20473;-66
2023/05/13 04:42:59;;;;;;;9.83;5.10;;;11.60;37.30;;;;;;5049116;28;20950;-66
2023/05/13 04:45:26;;;;;;;11.33;5.43;;;11.60;37.50;;;;;;5047271;28;20495;-67
2023/05/13 04:47:54;;;;;;;8.23;5.17;;;11.70;37.50;;;;;;5046018;28;20496;-66
2023/05/13 04:50:21;;;;;;;8.17;5.03;;;11.70;38.20;;;;;;5049622;28;20501;-66
2023/05/13 04:52:47;;;;;;;9.17;5.40;;;11.60;37.60;;;;;;5050082;28;21109;-68
2023/05/13 04:55:14;;;;;;;8.80;5.30;;;11.70;37.80;;;;;;5046694;28;20462;-67
2023/05/13 04:57:41;;;;;;;10.33;5.50;;;11.70;37.70;;;;;;5049516;28;20462;-67
2023/05/13 05:00:09;;;;;;;8.43;4.90;;;11.60;37.70;;;;;;5047933;28;20469;-67
2023/05/13 05:02:36;;;;;;;15.00;6.73;;;11.60;37.80;;;;;;5049302;28;20474;-67
2023/05/13 05:05:04;;;;;;;9.47;6.17;;;11.60;37.80;;;;;;5044577;28;20942;-67
2023/05/13 05:07:31;;;;;;;10.00;6.23;;;11.70;37.90;;;;;;5050451;28;20469;-67
2023/05/13 05:09:58;;;;;;;10.03;6.17;;;11.70;38.50;;;;;;5045208;28;21069;-66
2023/05/13 05:12:25;;;;;;;9.87;6.13;;;11.70;37.90;;;;;;5049581;28;20468;-67
2023/05/13 05:14:51;;;;;;;11.93;7.20;;;11.80;37.80;;;;;;5048887;28;20466;-67
2023/05/13 05:17:18;;;;;;;12.97;7.93;;;11.70;37.80;;;;;;5047040;28;21250;-67
2023/05/13 05:19:45;;;;;;;12.60;7.00;;;11.80;37.60;;;;;;5048661;28;20454;-67
2023/05/13 05:22:13;;;;;;;11.73;8.13;;;11.80;37.80;;;;;;5049639;28;20458;-67
2023/05/13 05:24:40;;;;;;;9.93;7.73;;;11.80;37.70;;;;;;5049167;28;20458;-67
2023/05/13 05:27:06;;;;;;;11.20;7.47;;;11.80;37.60;;;;;;5045107;28;20539;-67
2023/05/13 05:29:33;;;;;;;11.50;7.30;;;11.80;37.60;;;;;;5049611;28;20462;-67
2023/05/13 05:32:00;;;;;;;13.40;7.43;;;11.80;37.70;;;;;;5046734;28;20478;-66
2023/05/13 05:34:26;;;;;;;10.20;6.63;;;11.90;37.60;;;;;;5044322;28;20466;-67
2023/05/13 05:36:54;;;;;;;9.70;6.40;;;11.90;37.60;;;;;;5049935;28;20478;-67
2023/05/13 05:39:22;;;;;;;14.27;9.10;;;11.90;37.50;;;;;;5049098;28;20508;-67
2023/05/13 05:41:49;;;;;;;11.40;6.77;;;12.00;37.50;;;;;;5048968;28;20458;-67
2023/05/13 05:44:16;;;;;;;11.57;6.80;;;12.00;37.50;;;;;;5047700;28;20814;-67
2023/05/13 05:46:42;;;;;;;11.30;7.00;;;12.00;37.30;;;;;;5048462;28;20482;-66
2023/05/13 05:49:09;;;;;;;11.47;7.27;;;12.10;37.50;;;;;;5049047;28;20466;-66
2023/05/13 05:51:36;;;;;;;10.63;7.40;;;12.10;37.10;;;;;;5048371;28;20490;-66
2023/05/13 05:54:03;;;;;;;13.00;8.63;;;12.10;36.90;;;;;;5049656;28;20477;-67
2023/05/13 05:56:31;;;;;;;11.00;7.60;;;12.10;37.00;;;;;;5067181;28;20488;-67
2023/05/13 05:58:57;;;;;;;10.80;7.60;;;12.10;36.80;;;;;;5073320;28;20446;-67
2023/05/13 06:01:24;;;;;;;12.60;7.37;;;12.10;36.60;;;;;;5047637;28;20474;-67
2023/05/13 06:03:51;;;;;;;11.20;8.03;;;12.10;36.60;;;;;;5049055;28;20832;-67
2023/05/13 06:06:17;;;;;;;11.33;7.70;;;12.10;36.70;;;;;;5049536;28;20481;-67
2023/05/13 06:08:44;;;;;;;13.27;8.50;;;12.10;36.70;;;;;;5048576;28;20462;-68
2023/05/13 06:11:11;;;;;;;11.40;8.40;;;12.10;36.70;;;;;;5045601;28;21194;-67
2023/05/13 06:13:39;;;;;;;11.00;8.70;;;12.10;36.60;;;;;;5048757;28;20493;-67
2023/05/13 06:16:06;;;;;;;10.03;8.13;;;12.10;36.40;;;;;;5046878;28;20477;-67
2023/05/13 06:18:32;;;;;;;11.40;7.57;;;12.20;35.90;;;;;;5046113;28;20465;-67
2023/05/13 06:20:59;;;;;;;10.50;6.83;;;12.20;36.00;;;;;;5047668;28;20454;-67
2023/05/13 06:23:26;;;;;;;13.90;8.47;;;12.20;35.80;;;;;;5046939;28;20458;-66
2023/05/13 06:25:53;;;;;;;10.03;6.77;;;12.20;35.90;;;;;;5047172;28;20482;-66
2023/05/13 06:28:20;;;;;;;12.87;7.87;;;12.20;36.00;;;;;;5048583;28;20585;-66
2023/05/13 06:30:48;;;;;;;13.27;7.77;;;12.30;35.80;;;;;;5047285;28;20474;-66
2023/05/13 06:33:15;;;;;;;13.00;7.90;;;12.20;35.80;;;;;;5049016;28;20463;-65
2023/05/13 06:35:41;;;;;;;13.17;8.60;;;12.30;35.50;;;;;;5046112;28;21008;-67
2023/05/13 06:38:08;;;;;;;13.43;8.27;;;12.30;35.70;;;;;;5047708;28;20542;-67
2023/05/13 06:40:35;;;;;;;10.47;7.90;;;12.20;35.00;;;;;;5047525;28;20458;-67
2023/05/13 06:43:02;;;;;;;11.97;9.27;;;12.20;35.10;;;;;;5048858;28;20460;-66
2023/05/13 06:45:29;;;;;;;12.43;9.10;;;12.20;35.10;;;;;;5047501;28;20486;-67
2023/05/13 06:47:57;;;;;;;12.37;9.03;;;12.20;34.90;;;;;;5047558;28;20492;-66
2023/05/13 06:50:23;;;;;;;13.53;8.70;;;12.20;35.10;;;;;;5048420;28;20489;-67
2023/05/13 06:52:50;;;;;;;15.37;8.83;;;12.20;35.30;;;;;;5043131;28;20459;-68
2023/05/13 06:55:17;;;;;;;13.03;10.20;;;12.20;35.30;;;;;;5041232;28;20483;-68
2023/05/13 06:57:45;;;;;;;10.60;7.80;;;12.20;35.30;;;;;;5043139;28;20470;-68
2023/05/13 07:00:13;;;;;;;12.43;8.80;;;12.20;35.10;;;;;;5042973;28;20992;-67
2023/05/13 07:02:40;;;;;;;14.90;9.50;;;12.30;35.00;;;;;;5042712;28;20841;-68
2023/05/13 07:05:09;;;;;;;14.70;9.00;;;12.30;35.00;;;;;;5043746;28;20463;-68
2023/05/13 07:07:36;;;;;;;13.03;8.47;;;12.30;35.00;;;;;;5046571;28;20508;-67
2023/05/13 07:10:02;;;;;;;10.97;8.20;;;12.30;35.10;;;;;;5047431;28;20469;-67
2023/05/13 07:12:30;;;;;;;10.87;8.60;;;12.40;34.90;;;;;;5047469;28;20458;-68
2023/05/13 07:14:56;;;;;;;11.27;7.83;;;12.40;34.80;;;;;;5045347;28;20469;-67
2023/05/13 07:17:23;;;;;;;11.17;8.23;;;12.40;34.70;;;;;;5047241;28;20496;-68
2023/05/13 07:19:50;;;;;;;9.07;7.20;;;12.40;34.80;;;;;;5047385;28;20458;-68
2023/05/13 07:22:18;;;;;;;11.63;8.80;;;12.40;34.90;;;;;;5045395;28;21011;-68
2023/05/13 07:24:45;;;;;;;10.83;8.30;;;12.40;34.90;;;;;;5045968;28;20458;-67
2023/05/13 07:27:11;;;;;;;14.53;8.40;;;12.50;35.00;;;;;;5047739;28;20977;-68
2023/05/13 07:29:38;;;;;;;12.13;7.90;;;12.50;34.70;;;;;;5047177;28;20462;-67
2023/05/13 07:32:05;;;;;;;13.73;8.77;;;12.50;34.60;;;;;;5050071;28;20493;-68
2023/05/13 07:34:32;;;;;;;12.93;8.97;;;12.40;34.50;;;;;;5046698;28;20468;-68
2023/05/13 07:36:59;;;;;;;13.90;8.67;;;12.50;34.80;;;;;;5044519;28;20481;-68
2023/05/13 07:39:27;;;;;;;14.57;9.40;;;12.40;34.80;;;;;;5045236;28;20984;-67
2023/05/13 07:41:54;;;;;;;24.83;11.03;;;12.40;34.80;;;;;;5047210;28;20454;-67
2023/05/13 07:44:20;;;;;;;13.53;8.97;;;12.40;34.90;;;;;;5046136;28;20476;-67
2023/05/13 07:46:48;;;;;;;12.27;9.90;;;12.40;34.60;;;;;;5047111;28;20582;-68
2023/05/13 07:49:14;;;;;;;12.87;10.60;;;12.50;34.60;;;;;;5045781;28;20462;-67
2023/05/13 07:51:41;;;;;;;14.90;10.70;;;12.50;34.40;;;;;;5046303;28;20470;-67
2023/05/13 07:54:09;;;;;;;12.90;10.03;;;12.50;34.40;;;;;;5047284;28;20458;-67
2023/05/13 07:56:37;;;;;;;13.50;10.50;;;12.50;34.20;;;;;;5047075;28;20485;-67
2023/05/13 07:59:04;;;;;;;33.03;11.90;;;12.50;34.20;;;;;;5045373;28;20494;-66
2023/05/13 08:01:31;;;;;;;13.70;10.30;;;12.50;34.30;;;;;;5044570;28;20473;-68
2023/05/13 08:03:57;;;;;;;14.07;10.60;;;12.50;34.20;;;;;;5045475;28;20454;-68
2023/05/13 08:06:24;;;;;;;20.17;10.77;;;12.50;34.30;;;;;;5040669;28;20477;-67
2023/05/13 08:08:51;;;;;;;16.10;10.13;;;12.50;34.30;;;;;;5048994;28;20458;-67
2023/05/13 08:11:20;;;;;;;11.63;10.00;;;12.50;34.00;;;;;;5047363;28;20485;-68
2023/05/13 08:13:48;;;;;;;13.37;10.20;;;12.50;34.00;;;;;;5044910;28;20557;-67
2023/05/13 08:16:15;;;;;;;11.17;9.20;;;12.50;34.10;;;;;;5046349;28;20489;-67
2023/05/13 08:18:41;;;;;;;10.73;8.60;;;12.50;33.80;;;;;;5046738;28;20458;-67
2023/05/13 08:21:08;;;;;;;14.90;10.80;;;12.50;34.30;;;;;;5071636;22;20493;-66
2023/05/13 08:23:36;;;;;;;12.67;10.30;;;12.50;33.80;;;;;;5061145;28;20992;-64
2023/05/13 08:26:03;;;;;;;13.97;9.90;;;12.50;34.00;;;;;;5065321;28;20899;-63
2023/05/13 08:28:30;;;;;;;11.37;9.67;;;12.40;34.00;;;;;;5064574;28;20473;-64
2023/05/13 08:31:01;;;;;;;13.53;9.60;;;12.50;34.30;;;;;;5053027;28;21136;-64
2023/05/13 08:33:28;;;;;;;13.03;9.40;;;12.50;34.40;;;;;;5055645;28;20461;-64
2023/05/13 08:35:55;;;;;;;13.23;10.30;;;12.50;34.30;;;;;;5058565;28;20516;-64
2023/05/13 08:38:22;;;;;;;12.37;9.27;;;12.40;34.10;;;;;;5062483;28;20531;-64
2023/05/13 08:40:48;;;;;;;14.37;9.30;;;12.40;34.40;;;;;;5058693;28;20832;-64
2023/05/13 08:43:16;;;;;;;11.20;9.33;;;12.50;34.70;;;;;;5058362;28;20979;-64
2023/05/13 08:45:46;;;;;;;11.43;9.00;;;12.60;34.60;;;;;;5060518;28;20488;-64
2023/05/13 08:48:15;;;;;;;12.20;9.30;;;12.60;34.30;;;;;;5064268;28;20464;-64
2023/05/13 08:50:43;;;;;;;12.50;8.57;;;12.70;34.40;;;;;;5060711;28;20554;-64
2023/05/13 08:53:11;;;;;;;14.47;10.73;;;12.80;34.20;;;;;;5058167;28;20468;-64
2023/05/13 08:55:39;;;;;;;13.70;9.80;;;12.70;33.80;;;;;;5066323;28;20480;-64
2023/05/13 08:58:06;;;;;;;15.60;9.80;;;12.70;33.80;;;;;;5065709;28;20468;-64
2023/05/13 09:00:34;;;;;;;11.73;9.43;;;12.70;34.00;;;;;;5066478;28;20991;-64
2023/05/13 09:03:00;;;;;;;11.57;9.13;;;12.70;34.00;;;;;;5064411;28;20462;-64
2023/05/13 09:05:30;;;;;;;14.53;9.33;;;12.70;33.80;;;;;;5063872;28;20491;-64
2023/05/13 09:07:57;;;;;;;11.03;8.20;;;12.70;34.00;;;;;;5062653;28;20491;-64
2023/05/13 09:10:24;;;;;;;14.53;9.90;;;12.70;34.00;;;;;;5069042;28;20468;-64
2023/05/13 09:12:52;;;;;;;11.47;9.30;;;12.80;33.90;;;;;;5061194;28;20480;-64
2023/05/13 09:15:20;;;;;;;11.27;9.10;;;12.90;33.40;;;;;;5063980;28;20872;-64
2023/05/13 09:17:50;;;;;;;11.30;9.37;;;12.80;33.10;;;;;;5065337;28;20465;-65
2023/05/13 09:20:18;;;;;;;11.73;8.90;;;12.80;33.30;;;;;;5066699;28;20469;-64
2023/05/13 09:22:47;;;;;;;13.57;9.60;;;12.70;33.40;;;;;;5066351;28;20457;-64
2023/05/13 09:25:15;;;;;;;12.47;9.27;;;12.80;33.40;;;;;;5063696;28;20491;-64
2023/05/13 09:27:46;;;;;;;10.63;8.37;;;12.80;33.20;;;;;;5067478;28;20469;-64
2023/05/13 09:30:13;;;;;;;10.90;8.20;;;12.80;32.80;;;;;;5058017;28;20469;-64
2023/05/13 09:32:41;;;;;;;13.07;9.33;;;12.80;32.80;;;;;;5067151;28;20481;-64
2023/05/13 09:35:15;;;;;;;10.40;8.20;;;12.80;32.80;;;;;;5064211;28;20464;-64
2023/05/13 09:37:44;;;;;;;14.47;9.57;;;12.80;33.00;;;;;;5066225;28;20544;-64
2023/05/13 09:40:13;;;;;;;13.37;9.53;;;12.80;33.30;;;;;;5062833;28;20712;-64
2023/05/13 09:42:44;;;;;;;12.63;9.33;;;12.80;33.20;;;;;;5064558;28;20960;-64
2023/05/13 09:45:12;;;;;;;12.13;9.70;;;12.80;33.20;;;;;;5066744;28;20453;-64
2023/05/13 09:47:40;;;;;;;11.73;9.10;;;12.90;33.30;;;;;;5058665;28;20468;-64
2023/05/13 09:50:08;;;;;;;12.07;9.63;;;13.00;33.00;;;;;;5062366;28;20462;-64
2023/05/13 09:52:36;;;;;;;11.03;9.43;;;13.00;32.80;;;;;;5062987;28;20566;-64
2023/05/13 09:55:04;;;;;;;14.27;10.07;;;13.10;32.80;;;;;;5067152;28;20828;-64
2023/05/13 09:57:32;;;;;;;11.10;8.77;;;13.10;32.60;;;;;;5058052;28;20472;-64
2023/05/13 10:00:00;;;;;;;11.30;9.20;;;13.20;32.40;;;;;;5061225;28;20485;-64
2023/05/13 10:02:27;;;;;;;10.10;8.33;;;13.30;31.90;;;;;;5063684;28;20471;-64
2023/05/13 10:04:55;;;;;;;11.17;9.43;;;13.30;31.80;;;;;;5065303;28;20555;-64
2023/05/13 10:07:24;;;;;;;11.10;9.03;;;13.40;31.90;;;;;;5062624;28;20464;-64
2023/05/13 10:09:53;;;;;;;11.50;10.10;;;13.50;31.60;;;;;;5055275;28;20465;-63
2023/05/13 10:12:21;;;;;;;10.20;8.17;;;13.50;31.60;;;;;;5058550;28;20565;-63
2023/05/13 10:14:51;;;;;;;11.97;8.83;;;13.50;31.50;;;;;;5065701;28;20465;-63
2023/05/13 10:17:19;;;;;;;13.43;10.80;;;13.50;31.60;;;;;;5062580;28;20568;-63
2023/05/13 10:19:48;;;;;;;11.30;9.13;;;13.60;32.10;;;;;;5061689;28;21010;-63
2023/05/13 10:22:15;;;;;;;11.57;9.40;;;13.60;31.50;;;;;;5063428;28;20459;-63
2023/05/13 10:24:43;;;;;;;9.57;8.13;;;13.70;31.50;;;;;;5063452;28;20510;-63
2023/05/13 10:27:11;;;;;;;12.67;8.70;;;13.60;30.90;;;;;;5061172;28;21004;-64
2023/05/13 10:29:39;;;;;;;13.20;10.23;;;13.60;30.80;;;;;;5064088;28;20465;-64
2023/05/13 10:32:08;;;;;;;13.17;9.70;;;13.50;30.80;;;;;;5059438;28;21243;-65
2023/05/13 10:34:37;;;;;;;11.60;10.00;;;13.50;31.00;;;;;;5059696;28;20849;-65
2023/05/13 10:37:23;;;;;;;12.10;9.67;;;13.50;31.00;;;;;;5062972;28;20484;-64
2023/05/13 10:40:12;;;;;;;28.30;17.20;;;13.50;31.20;;;;;;5064233;28;20464;-64
2023/05/13 10:42:44;;;;;;;30.63;21.87;;;13.50;31.10;;;;;;5060261;28;20804;-64
2023/05/13 10:45:11;;;;;;;17.87;14.97;;;13.50;31.00;;;;;;5060096;28;20498;-64
2023/05/13 10:47:39;;;;;;;12.50;11.13;;;13.50;31.10;;;;;;5064765;28;21130;-64
2023/05/13 10:50:21;;;;;;;11.47;9.53;;;13.50;31.30;;;;;;5057921;28;20466;-64
2023/05/13 10:52:48;;;;;;;14.83;9.90;;;13.40;31.10;;;;;;5063068;28;21159;-64
2023/05/13 10:55:17;;;;;;;10.60;9.30;;;13.40;31.30;;;;;;5060434;28;20479;-64
2023/05/13 10:58:04;;;;;;;11.70;10.43;;;13.50;31.30;;;;;;5054363;28;20461;-64
2023/05/13 11:00:31;;;;;;;10.07;8.77;;;13.40;31.20;;;;;;5057135;28;22237;-64
2023/05/13 11:03:09;;;;;;;9.43;8.20;;;13.40;31.40;;;;;;5066057;28;20979;-64
2023/05/13 11:05:39;;;;;;;10.90;9.37;;;13.30;31.60;;;;;;5061299;28;20534;-64
2023/05/13 11:08:06;;;;;;;12.20;9.43;;;13.30;31.50;;;;;;5064646;28;20508;-65
2023/05/13 11:10:33;;;;;;;12.00;9.73;;;13.30;32.10;;;;;;5065224;28;20840;-63
2023/05/13 11:13:23;;;;;;;11.83;8.70;;;13.40;32.20;;;;;;5065165;28;20484;-64
2023/05/13 11:15:51;;;;;;;9.73;8.40;;;13.60;31.90;;;;;;5062722;28;20481;-64
2023/05/13 11:18:20;;;;;;;12.13;8.40;;;13.80;31.10;;;;;;5058871;28;20461;-64
2023/05/13 11:20:52;;;;;;;10.33;8.73;;;13.80;30.80;;;;;;5061977;28;20465;-64
2023/05/13 11:23:19;;;;;;;10.13;8.33;;;13.80;30.40;;;;;;5057768;28;20949;-65
2023/05/13 11:25:47;;;;;;;12.33;9.40;;;13.90;30.40;;;;;;5062797;28;20483;-65
2023/05/13 11:28:17;;;;;;;11.47;9.30;;;13.90;30.20;;;;;;5060435;28;20477;-65
2023/05/13 11:30:54;;;;;;;9.20;7.83;;;13.90;30.20;;;;;;5065925;28;20465;-64
2023/05/13 11:33:22;;;;;;;9.77;8.27;;;13.80;30.20;;;;;;5061747;28;20578;-64
2023/05/13 11:35:55;;;;;;;10.33;8.90;;;13.80;30.20;;;;;;5063574;28;20479;-64
2023/05/13 11:38:23;;;;;;;9.67;8.00;;;13.70;29.90;;;;;;5059877;28;20908;-64
2023/05/13 11:40:50;;;;;;;9.60;8.07;;;13.60;30.10;;;;;;5065841;28;20759;-64
2023/05/13 11:43:19;;;;;;;8.60;6.97;;;13.60;30.40;;;;;;5058296;28;20454;-64
2023/05/13 11:45:47;;;;;;;9.90;7.10;;;13.60;30.70;;;;;;5060549;28;20473;-64
2023/05/13 11:48:22;;;;;;;8.07;6.87;;;13.70;30.30;;;;;;5065436;28;20484;-64
2023/05/13 11:50:50;;;;;;;9.50;6.63;;;13.70;30.50;;;;;;5062527;28;20793;-64
2023/05/13 11:53:21;;;;;;;8.17;6.37;;;13.70;30.30;;;;;;5060936;28;20485;-64
2023/05/13 11:55:49;;;;;;;9.17;6.17;;;13.70;30.10;;;;;;5057986;28;20512;-64
2023/05/13 11:58:16;;;;;;;7.80;6.30;;;13.80;30.10;;;;;;5061182;28;20461;-64
2023/05/13 12:00:42;;;;;;;9.97;7.07;;;13.80;29.90;;;;;;5062875;28;20464;-64
2023/05/13 12:03:12;;;;;;;7.83;6.30;;;13.80;29.70;;;;;;5060835;28;20500;-64
2023/05/13 12:05:40;;;;;;;7.93;7.13;;;13.80;30.00;;;;;;5062977;28;20559;-65
2023/05/13 12:08:09;;;;;;;8.43;6.60;;;13.80;29.90;;;;;;5060076;28;20466;-64
2023/05/13 12:10:42;;;;;;;8.27;6.90;;;13.80;29.70;;;;;;5063611;28;20965;-64
2023/05/13 12:13:09;;;;;;;9.30;7.50;;;13.80;29.50;;;;;;5055980;28;20883;-64
2023/05/13 12:15:36;;;;;;;9.00;7.33;;;13.80;29.50;;;;;;5059151;28;20508;-64
2023/05/13 12:18:03;;;;;;;9.13;7.27;;;13.80;29.80;;;;;;5064074;28;20460;-64
2023/05/13 12:20:29;;;;;;;8.17;6.77;;;13.70;30.00;;;;;;5061964;28;20462;-64
2023/05/13 12:23:00;;;;;;;8.70;6.73;;;13.70;29.70;;;;;;5065893;28;20458;-64
2023/05/13 12:25:38;;;;;;;9.33;7.53;;;13.70;29.70;;;;;;5065023;28;20480;-64
2023/05/13 12:28:09;;;;;;;8.53;6.70;;;13.70;29.90;;;;;;5062777;28;20473;-64
2023/05/13 12:30:36;;;;;;;8.37;6.67;;;13.80;29.90;;;;;;5067372;28;20480;-64
2023/05/13 12:33:04;;;;;;;8.20;6.97;;;13.80;29.90;;;;;;5067195;28;20488;-64
2023/05/13 12:35:31;;;;;;;8.70;7.30;;;13.80;29.90;;;;;;5061947;28;20536;-64
2023/05/13 12:38:04;;;;;;;8.27;7.13;;;13.70;29.90;;;;;;5069880;28;20472;-64
2023/05/13 12:40:31;;;;;;;9.63;7.80;;;13.70;30.20;;;;;;5063320;28;20461;-64
2023/05/13 12:42:58;;;;;;;9.00;7.20;;;13.70;30.20;;;;;;5068937;28;20460;-64
2023/05/13 12:45:30;;;;;;;8.60;7.30;;;13.70;30.40;;;;;;5059114;28;20833;-64